Time;durP1;ratioP1;P1;durP2;ratioP2;P2;SDS_P1;SDS_P2;PMS_P1;PMS_P2;Temp;Humidity;BMP_temperature;BMP_pressure;BME280_temperature;BME280_humidity;BME280_pressure;Samples;Min_cycle;Max_cycle;Signal;HPM_P1;HPM_P2
2021/12/27 00:02:33;;;;;;;;;77.20;66.00;;;;;-3.20;43.25;98654.28;6210398;28;97026;-63
2021/12/27 00:05:36;;;;;;;;;77.75;64.50;;;;;-3.20;43.14;98654.28;6226209;28;97145;-64
2021/12/27 00:08:42;;;;;;;;;79.75;67.50;;;;;-3.34;43.32;98661.78;6210101;28;97289;-62
2021/12/27 00:11:46;;;;;;;;;78.40;61.80;;;;;-3.31;43.06;98658.84;6210090;28;96810;-64
2021/12/27 00:14:49;;;;;;;;;77.60;65.40;;;;;-3.32;43.05;98655.38;6209569;28;96922;-65
2021/12/27 00:17:53;;;;;;;;;78.00;64.60;;;;;-3.35;42.81;98649.56;6209600;28;97323;-64
2021/12/27 00:20:56;;;;;;;;;80.25;65.25;;;;;-3.26;42.54;98646.09;6208530;28;97038;-62
2021/12/27 00:24:01;;;;;;;;;76.50;64.50;;;;;-3.28;42.61;98651.53;6209633;28;97224;-64
2021/12/27 00:27:04;;;;;;;;;77.20;65.00;;;;;-3.33;42.65;98658.19;6211742;28;96596;-63
2021/12/27 00:30:09;;;;;;;;;78.20;67.20;;;;;-3.38;42.77;98652.50;6209285;28;97855;-64
2021/12/27 00:33:13;;;;;;;;;79.40;67.40;;;;;-3.45;42.42;98649.56;6212192;28;97457;-64
2021/12/27 00:36:16;;;;;;;;;78.40;64.80;;;;;-3.44;42.96;98656.50;6212296;28;96899;-64
2021/12/27 00:39:21;;;;;;;;;78.40;66.00;;;;;-3.52;42.81;98648.47;6220971;28;97792;-64
2021/12/27 00:42:24;;;;;;;;;81.75;68.25;;;;;-3.47;42.84;98653.34;6212007;27;96694;-64
2021/12/27 00:45:27;;;;;;;;;80.00;69.00;;;;;-3.43;42.90;98654.72;6212354;28;96870;-64
2021/12/27 00:48:31;;;;;;;;;83.00;68.60;;;;;-3.48;43.05;98652.50;6212132;28;96636;-64
2021/12/27 00:51:34;;;;;;;;;90.00;78.00;;;;;-3.53;42.77;98647.66;6211907;28;97942;-64
2021/12/27 00:54:39;;;;;;;;;79.20;70.00;;;;;-3.51;42.98;98656.22;6210048;28;96677;-63
2021/12/27 00:57:43;;;;;;;;;83.60;69.00;;;;;-3.57;43.09;98662.03;6209802;28;96746;-63
2021/12/27 01:00:46;;;;;;;;;88.60;73.60;;;;;-3.68;43.69;98654.28;6210644;28;97186;-63
2021/12/27 01:03:49;;;;;;;;;89.50;73.50;;;;;-3.71;43.90;98651.09;6209664;28;96651;-62
2021/12/27 01:06:53;;;;;;;;;91.00;77.00;;;;;-3.74;43.98;98646.94;6211673;28;97470;-64
2021/12/27 01:10:08;;;;;;;;;86.40;73.40;;;;;-3.70;43.74;98642.22;6210490;28;97676;-63
2021/12/27 01:13:21;;;;;;;;;94.75;77.25;;;;;-3.82;44.04;98640.69;6193263;28;99402;-63
2021/12/27 01:16:25;;;;;;;;;89.00;76.00;;;;;-3.78;44.15;98639.44;6243970;27;97010;-64
2021/12/27 01:19:28;;;;;;;;;98.00;78.80;;;;;-3.77;44.03;98643.75;6211900;28;96929;-62
2021/12/27 01:22:31;;;;;;;;;89.00;72.50;;;;;-3.76;44.32;98638.31;6210706;28;97520;-64
2021/12/27 01:25:36;;;;;;;;;86.00;73.40;;;;;-3.79;44.40;98635.16;6193321;28;96720;-63
2021/12/27 01:28:40;;;;;;;;;90.75;76.25;;;;;-3.83;44.61;98628.50;6210686;28;97262;-64
2021/12/27 01:31:44;;;;;;;;;86.80;73.80;;;;;-3.81;44.89;98639.75;6210301;28;97094;-64
2021/12/27 01:34:47;;;;;;;;;95.20;77.80;;;;;-3.93;45.32;98636.38;6210025;28;97164;-64
2021/12/27 01:37:53;;;;;;;;;87.50;76.50;;;;;-3.88;45.29;98641.25;6210482;28;96638;-63
2021/12/27 01:40:59;;;;;;;;;98.80;77.40;;;;;-3.88;45.03;98635.97;6244133;27;97051;-64
2021/12/27 01:44:02;;;;;;;;;85.60;71.00;;;;;-3.85;45.08;98622.53;6210785;28;97069;-63
2021/12/27 01:47:06;;;;;;;;;97.25;80.00;;;;;-3.77;44.65;98628.78;6211728;28;97462;-62
2021/12/27 01:50:09;;;;;;;;;91.20;77.00;;;;;-3.68;44.73;98635.03;6210910;28;97057;-64
2021/12/27 01:53:15;;;;;;;;;84.40;71.60;;;;;-3.77;44.51;98634.06;6209171;28;97449;-64
2021/12/27 01:56:22;;;;;;;;;90.20;75.20;;;;;-3.66;44.38;98643.59;6209686;28;96911;-64
2021/12/27 01:59:25;;;;;;;;;96.00;79.00;;;;;-3.66;44.35;98639.16;6209670;28;97043;-63
2021/12/27 02:02:28;;;;;;;;;94.60;81.00;;;;;-3.62;44.18;98642.38;6211338;28;96535;-63
2021/12/27 02:05:32;;;;;;;;;91.20;77.60;;;;;-3.67;43.68;98640.16;6209439;28;97462;-62
2021/12/27 02:08:37;;;;;;;;;91.50;78.00;;;;;-3.67;43.84;98641.97;6210607;28;96728;-63
2021/12/27 02:11:42;;;;;;;;;92.00;78.25;;;;;-3.69;43.84;98634.19;6211236;28;96678;-63
2021/12/27 02:14:45;;;;;;;;;92.00;78.60;;;;;-3.76;43.92;98633.06;6213248;28;97305;-63
2021/12/27 02:17:49;;;;;;;;;97.40;82.60;;;;;-3.76;43.97;98624.34;6215012;28;97542;-64
2021/12/27 02:20:53;;;;;;;;;96.00;81.60;;;;;-3.72;43.45;98623.94;6212743;28;97132;-63
2021/12/27 02:23:57;;;;;;;;;92.75;79.25;;;;;-3.72;43.56;98612.56;6211913;28;97946;-64
2021/12/27 02:27:00;;;;;;;;;101.00;81.00;;;;;-3.74;43.45;98617.97;6213078;28;97589;-64
2021/12/27 02:30:07;;;;;;;;;98.50;78.50;;;;;-3.84;43.74;98609.22;6214838;28;96896;-63
2021/12/27 02:33:12;;;;;;;;;96.60;81.00;;;;;-3.86;43.74;98611.16;6214287;28;96474;-64
2021/12/27 02:36:17;;;;;;;;;91.60;78.80;;;;;-4.20;43.99;98604.63;6213402;28;97101;-64
2021/12/27 02:39:20;;;;;;;;;93.75;76.75;;;;;-4.06;43.80;98607.69;6214880;28;96529;-64
2021/12/27 02:42:23;;;;;;;;;99.20;80.80;;;;;-4.12;43.83;98600.34;6212775;28;99006;-64
2021/12/27 02:45:31;;;;;;;;;93.00;76.20;;;;;-4.46;44.46;98576.19;6212647;28;97791;-63
2021/12/27 02:48:38;;;;;;;;;91.00;76.80;;;;;-4.24;43.88;98609.31;6214549;28;96582;-62
2021/12/27 02:51:43;;;;;;;;;91.60;77.80;;;;;-4.31;44.16;98610.84;6212340;28;96949;-63
2021/12/27 02:54:46;;;;;;;;;94.40;77.00;;;;;-4.30;44.57;98614.31;6214093;28;96565;-63
2021/12/27 02:57:50;;;;;;;;;98.80;79.00;;;;;-4.47;44.38;98582.41;6213640;28;96863;-63
2021/12/27 03:01:16;;;;;;;;;95.60;78.20;;;;;-4.27;44.68;98609.59;6196318;28;96673;-63
2021/12/27 03:04:19;;;;;;;;;95.80;81.00;;;;;-4.12;44.73;98605.59;6214175;28;97272;-63
2021/12/27 03:07:24;;;;;;;;;94.60;79.60;;;;;-4.08;45.94;98607.00;6203221;28;97065;-62
2021/12/27 03:10:31;;;;;;;;;84.60;71.00;;;;;-4.00;46.93;98595.75;6213627;28;97425;-64
2021/12/27 03:13:37;;;;;;;;;94.60;75.00;;;;;-3.99;45.70;98592.16;6213597;28;97182;-64
2021/12/27 03:16:40;;;;;;;;;85.00;69.00;;;;;-3.95;45.16;98593.53;6212235;28;98315;-62
2021/12/27 03:19:43;;;;;;;;;80.80;67.80;;;;;-3.97;46.65;98598.13;6214503;28;97500;-63
2021/12/27 03:22:48;;;;;;;;;78.00;66.00;;;;;-3.91;46.42;98599.41;6212773;28;96473;-62
2021/12/27 03:25:53;;;;;;;;;82.00;69.00;;;;;-3.96;45.47;98602.44;6211464;28;96667;-64
2021/12/27 03:28:56;;;;;;;;;80.50;66.50;;;;;-4.20;46.13;98612.53;6211552;28;98090;-64
2021/12/27 03:31:59;;;;;;;;;75.40;58.60;;;;;-4.36;46.11;98599.88;6213295;28;96996;-65
2021/12/27 03:35:09;;;;;;;;;71.40;53.00;;;;;-4.28;48.03;98610.56;6213564;28;97150;-63
2021/12/27 03:38:14;;;;;;;;;74.40;58.00;;;;;-4.52;46.74;98602.19;6211253;28;97275;-64
2021/12/27 03:41:22;;;;;;;;;66.40;52.00;;;;;-4.73;47.02;98619.81;6211719;28;97429;-64
2021/12/27 03:44:25;;;;;;;;;65.00;51.00;;;;;-4.85;47.23;98616.47;6210794;28;97085;-63
2021/12/27 03:47:29;;;;;;;;;73.20;57.40;;;;;-4.92;47.43;98620.56;6213566;28;96552;-63
2021/12/27 03:50:32;;;;;;;;;73.00;55.40;;;;;-4.77;47.45;98627.13;6212849;28;96693;-63
2021/12/27 03:53:37;;;;;;;;;67.80;52.00;;;;;-4.73;47.06;98627.69;6211162;28;97231;-64
2021/12/27 03:56:40;;;;;;;;;65.00;51.00;;;;;-4.67;46.90;98624.56;6212393;28;97370;-65
2021/12/27 04:00:05;;;;;;;;;66.00;51.40;;;;;-4.72;47.64;98624.13;6212854;28;97219;-65
2021/12/27 04:03:14;;;;;;;;;62.40;48.00;;;;;-4.51;47.75;98614.38;6213113;28;97148;-63
2021/12/27 04:06:20;;;;;;;;;63.25;49.25;;;;;-4.46;48.18;98609.53;6211380;28;96796;-63
2021/12/27 04:09:25;;;;;;;;;63.00;49.00;;;;;-4.39;47.35;98608.84;6212472;28;97076;-63
2021/12/27 04:12:28;;;;;;;;;65.40;49.40;;;;;-4.25;47.35;98618.16;6205168;28;97726;-64
2021/12/27 04:15:31;;;;;;;;;61.40;46.00;;;;;-4.22;47.58;98617.91;6203218;28;100104;-63
2021/12/27 04:18:35;;;;;;;;;67.50;51.00;;;;;-4.08;47.54;98625.41;6225192;28;97433;-64
2021/12/27 04:21:38;;;;;;;;;60.40;44.40;;;;;-4.11;47.58;98611.72;6213113;28;96820;-63
2021/12/27 04:24:43;;;;;;;;;62.00;48.00;;;;;-4.17;47.31;98581.50;6210402;28;98412;-63
2021/12/27 04:27:47;;;;;;;;;62.40;48.00;;;;;-3.91;47.49;98609.94;6211728;28;96607;-63
2021/12/27 04:30:51;;;;;;;;;60.20;46.60;;;;;-3.89;47.61;98614.06;6194417;28;97694;-64
2021/12/27 04:33:54;;;;;;;;;57.40;44.20;;;;;-3.88;47.93;98615.75;6194321;28;96602;-63
2021/12/27 04:36:58;;;;;;;;;58.80;44.00;;;;;-4.08;49.00;98608.78;6212700;28;96438;-64
2021/12/27 04:40:07;;;;;;;;;60.00;45.00;;;;;-3.74;48.34;98612.69;6211183;28;96537;-63
2021/12/27 04:43:12;;;;;;;;;57.20;43.20;;;;;-3.68;48.29;98622.69;6211721;28;97024;-63
2021/12/27 04:46:16;;;;;;;;;57.00;44.00;;;;;-3.45;48.36;98622.38;6210682;28;98338;-63
2021/12/27 04:49:19;;;;;;;;;54.80;43.00;;;;;-3.35;47.77;98629.31;6211688;28;97606;-63
2021/12/27 04:52:22;;;;;;;;;55.60;42.00;;;;;-3.34;47.22;98627.50;6210109;28;96603;-64
2021/12/27 04:55:29;;;;;;;;;60.40;46.00;;;;;-3.38;47.64;98620.88;6207571;28;98417;-65
2021/12/27 04:58:32;;;;;;;;;55.80;44.20;;;;;-3.29;47.51;98633.19;6210604;28;96609;-63
2021/12/27 05:01:36;;;;;;;;;55.80;41.00;;;;;-3.41;48.02;98631.66;6209418;28;97303;-64
2021/12/27 05:04:39;;;;;;;;;54.00;43.00;;;;;-3.16;47.44;98639.00;6210328;28;96403;-64
2021/12/27 05:07:44;;;;;;;;;60.60;46.00;;;;;-3.05;47.02;98638.84;6211802;28;97164;-64
2021/12/27 05:10:49;;;;;;;;;58.00;45.00;;;;;-3.33;47.86;98639.72;6227187;28;96653;-63
2021/12/27 05:13:55;;;;;;;;;55.80;44.00;;;;;-3.38;48.05;98632.25;6210065;28;100082;-64
2021/12/27 05:16:59;;;;;;;;;55.40;42.60;;;;;-3.40;48.12;98626.28;6211966;28;97441;-64
2021/12/27 05:20:04;;;;;;;;;58.50;45.00;;;;;-3.29;48.06;98625.28;6211617;28;97379;-65
2021/12/27 05:23:08;;;;;;;;;55.00;43.00;;;;;-3.23;47.84;98633.47;6209805;28;96595;-64
2021/12/27 05:26:12;;;;;;;;;56.60;44.40;;;;;-3.15;47.82;98638.88;6210054;28;97203;-63
2021/12/27 05:29:16;;;;;;;;;55.00;42.00;;;;;-3.20;48.21;98633.19;6177827;28;98701;-63
2021/12/27 05:32:19;;;;;;;;;55.25;42.75;;;;;-3.34;48.62;98620.44;6193581;28;96897;-64
2021/12/27 05:35:22;;;;;;;;;53.60;43.00;;;;;-3.28;48.61;98625.16;6211157;28;98404;-64
2021/12/27 05:38:26;;;;;;;;;57.20;44.20;;;;;-3.10;48.17;98615.53;6225562;27;98057;-64
2021/12/27 05:41:30;;;;;;;;;55.25;43.00;;;;;-2.98;47.93;98618.81;6191421;28;96471;-63
2021/12/27 05:44:34;;;;;;;;;52.00;41.00;;;;;-2.92;48.36;98618.25;6187748;28;97511;-64
2021/12/27 05:47:37;;;;;;;;;54.60;42.80;;;;;-2.79;47.84;98604.75;6199986;27;97476;-64
2021/12/27 05:50:41;;;;;;;;;51.20;41.00;;;;;-2.59;47.92;98606.34;6201951;28;96630;-63
2021/12/27 05:53:44;;;;;;;;;54.00;40.50;;;;;-2.56;47.78;98607.84;6188722;28;97340;-64
2021/12/27 05:56:49;;;;;;;;;51.60;41.40;;;;;-2.34;47.56;98610.09;6195227;28;97459;-63
2021/12/27 05:59:52;;;;;;;;;50.50;41.00;;;;;-2.20;47.70;98607.78;6203470;28;96702;-63
2021/12/27 06:02:56;;;;;;;;;47.60;38.00;;;;;-2.06;47.02;98606.47;6204196;28;97178;-64
2021/12/27 06:05:59;;;;;;;;;47.20;38.00;;;;;-1.98;47.43;98606.56;6200398;28;97072;-63
2021/12/27 06:09:03;;;;;;;;;45.33;36.00;;;;;-2.01;47.12;98592.81;6211561;28;97156;-65
2021/12/27 06:12:09;;;;;;;;;49.75;39.00;;;;;-2.01;47.32;98601.56;6216209;28;96469;-64
2021/12/27 06:15:13;;;;;;;;;48.00;38.00;;;;;-2.01;47.47;98601.56;6212299;28;96917;-66
2021/12/27 06:18:17;;;;;;;;;45.50;37.00;;;;;-2.14;47.44;98595.81;6211083;28;96674;-63
2021/12/27 06:21:20;;;;;;;;;44.25;35.25;;;;;-2.10;47.77;98599.81;6213299;28;98025;-63
2021/12/27 06:24:23;;;;;;;;;51.75;40.00;;;;;-2.04;47.58;98604.50;6229671;28;97387;-63
2021/12/27 06:27:29;;;;;;;;;45.40;36.00;;;;;-1.86;47.67;98607.19;6194198;28;99407;-63
2021/12/27 06:30:32;;;;;;;;;45.60;36.00;;;;;-1.76;47.60;98597.38;6212225;28;97404;-66
2021/12/27 06:33:36;;;;;;;;;49.40;38.00;;;;;-1.84;47.26;98584.88;6212417;28;98290;-64
2021/12/27 06:36:39;;;;;;;;;43.50;36.00;;;;;-1.78;47.53;98589.59;6213478;28;96651;-68
2021/12/27 06:39:42;;;;;;;;;42.00;35.00;;;;;-1.78;47.80;98586.09;6212558;28;97510;-67
2021/12/27 06:42:48;;;;;;;;;35.60;31.60;;;;;-1.96;48.34;98593.19;6211487;28;97377;-69
2021/12/27 06:45:51;;;;;;;;;37.40;32.40;;;;;-2.10;48.48;98596.38;6190306;28;96767;-65
2021/12/27 06:48:55;;;;;;;;;36.50;30.00;;;;;-2.14;49.23;98585.25;6191302;28;96988;-66
2021/12/27 06:51:58;;;;;;;;;35.00;30.00;;;;;-2.11;48.98;98595.53;6209171;27;98406;-68
2021/12/27 06:55:02;;;;;;;;;35.00;29.00;;;;;-2.34;49.58;98591.63;6191908;28;96991;-65
2021/12/27 06:58:07;;;;;;;;;34.40;29.40;;;;;-2.42;50.30;98589.72;6192768;28;98449;-66
2021/12/27 07:01:10;;;;;;;;;32.00;29.00;;;;;-2.32;49.65;98602.88;6197016;28;98589;-67
2021/12/27 07:04:13;;;;;;;;;26.00;21.60;;;;;-2.79;50.81;98602.13;6188123;28;97614;-64
2021/12/27 07:07:17;;;;;;;;;29.75;26.25;;;;;-2.64;50.62;98595.41;6196584;28;97567;-65
2021/12/27 07:10:22;;;;;;;;;30.00;28.60;;;;;-2.80;51.65;98603.09;6192048;28;96968;-64
2021/12/27 07:13:26;;;;;;;;;35.50;29.75;;;;;-2.67;51.57;98583.31;6190179;28;98379;-65
2021/12/27 07:16:30;;;;;;;;;35.60;28.40;;;;;-2.77;51.95;98582.53;6193407;28;96565;-65
2021/12/27 07:19:33;;;;;;;;;32.00;28.20;;;;;-2.72;51.90;98572.38;6212738;28;96659;-66
2021/12/27 07:22:38;;;;;;;;;32.00;28.00;;;;;-2.63;51.81;98565.38;6212961;28;96935;-66
2021/12/27 07:25:42;;;;;;;;;33.00;27.40;;;;;-3.10;52.17;98499.53;6213617;28;96484;-69
2021/12/27 07:28:47;;;;;;;;;35.40;30.00;;;;;-2.77;52.40;98574.63;6214175;28;96535;-68
2021/12/27 07:31:50;;;;;;;;;33.00;26.40;;;;;-2.49;51.88;98572.00;6212738;28;96969;-66
2021/12/27 07:34:54;;;;;;;;;34.60;29.60;;;;;-2.41;51.59;98556.25;6212573;28;97460;-65
2021/12/27 07:37:57;;;;;;;;;33.20;29.80;;;;;-2.15;51.09;98573.00;6203306;28;96909;-66
2021/12/27 07:41:02;;;;;;;;;28.40;25.60;;;;;-2.36;51.85;98565.38;6212021;28;97955;-66
2021/12/27 07:44:07;;;;;;;;;34.75;30.00;;;;;-2.31;51.78;98567.56;6213492;28;96639;-66
2021/12/27 07:47:11;;;;;;;;;36.20;30.20;;;;;-2.31;51.63;98567.56;6189748;28;97552;-64
2021/12/27 07:50:14;;;;;;;;;30.50;27.50;;;;;-2.56;52.49;98557.72;6237577;27;96693;-64
2021/12/27 07:53:18;;;;;;;;;36.20;30.00;;;;;-2.59;52.24;98556.22;6196350;28;97451;-65
2021/12/27 07:56:21;;;;;;;;;35.80;31.80;;;;;-2.40;52.40;98557.91;6210223;28;97698;-67
2021/12/27 07:59:26;;;;;;;;;38.00;32.00;;;;;-2.24;51.77;98545.69;6184031;28;96706;-67
2021/12/27 08:02:29;;;;;;;;;38.00;31.50;;;;;-1.99;51.26;98557.34;6221751;28;96843;-67
2021/12/27 08:05:33;;;;;;;;;42.00;33.00;;;;;-1.89;51.03;98560.72;6211432;28;97033;-63
2021/12/27 08:08:36;;;;;;;;;41.50;33.75;;;;;-1.92;51.09;98552.28;6211129;28;97836;-67
2021/12/27 08:11:39;;;;;;;;;36.00;31.00;;;;;-1.84;51.06;98552.34;6209335;28;97234;-65
2021/12/27 08:14:44;;;;;;;;;39.50;33.00;;;;;-1.79;50.93;98550.91;6192080;28;98083;-66
2021/12/27 08:17:48;;;;;;;;;37.75;30.50;;;;;-1.82;51.10;98545.13;6210877;28;97453;-65
2021/12/27 08:20:51;;;;;;;;;42.50;33.00;;;;;-1.81;50.92;98549.44;6211699;28;97513;-66
2021/12/27 08:23:54;;;;;;;;;37.00;32.00;;;;;-1.90;51.29;98543.22;6211229;28;98159;-66
2021/12/27 08:27:02;;;;;;;;;38.20;32.60;;;;;-1.81;51.23;98538.84;6211412;28;96772;-64
2021/12/27 08:30:08;;;;;;;;;45.00;36.00;;;;;-1.78;51.21;98541.19;6211803;28;96673;-69
2021/12/27 08:33:12;;;;;;;;;45.67;36.00;;;;;-1.64;51.18;98523.94;6206468;28;97255;-67
2021/12/27 08:36:15;;;;;;;;;47.00;38.00;;;;;-1.32;50.62;98527.63;6204383;28;97445;-67
2021/12/27 08:39:19;;;;;;;;;52.50;39.50;;;;;-1.24;50.25;98524.22;6191815;28;96628;-68
2021/12/27 08:42:22;;;;;;;;;61.00;44.00;;;;;-1.14;49.81;98526.78;6198170;28;96916;-66
2021/12/27 08:45:28;;;;;;;;;56.00;42.20;;;;;-0.95;49.83;98531.84;6202542;28;97092;-66
2021/12/27 08:48:33;;;;;;;;;51.50;41.00;;;;;-0.71;49.07;98520.53;6206878;28;96641;-66
2021/12/27 08:51:36;;;;;;;;;54.00;42.50;;;;;-0.57;48.92;98526.03;6208390;28;97056;-68
2021/12/27 08:54:40;;;;;;;;;56.60;43.40;;;;;-0.48;48.42;98503.88;6190219;28;96674;-70
2021/12/27 08:57:45;;;;;;;;;50.20;39.60;;;;;-0.29;48.01;98521.31;6194186;28;97119;-66
2021/12/27 09:00:50;;;;;;;;;52.80;40.60;;;;;-0.30;47.13;98505.59;6197773;28;97281;-66
2021/12/27 09:03:53;;;;;;;;;59.60;44.00;;;;;-0.14;47.22;98529.44;6195546;28;98601;-66
2021/12/27 09:06:56;;;;;;;;;53.00;41.80;;;;;-0.16;48.27;98516.41;6210008;28;97032;-66
2021/12/27 09:10:00;;;;;;;;;52.40;42.00;;;;;-0.26;47.11;98517.53;6210501;28;97505;-67
2021/12/27 09:13:03;;;;;;;;;56.60;42.00;;;;;-0.23;47.35;98523.31;6242617;27;97243;-67
2021/12/27 09:16:11;;;;;;;;;54.25;41.00;;;;;-0.17;47.52;98521.84;6202231;28;96760;-69
2021/12/27 09:19:15;;;;;;;;;54.80;40.40;;;;;-0.05;47.35;98521.34;6213070;28;96637;-67
2021/12/27 09:22:18;;;;;;;;;55.00;42.00;;;;;-0.05;47.32;98508.09;6212461;28;97370;-68
2021/12/27 09:25:22;;;;;;;;;52.50;41.00;;;;;-0.12;47.02;98507.13;6215603;28;97444;-65
2021/12/27 09:28:26;;;;;;;;;51.75;40.75;;;;;0.00;47.08;98503.16;6213533;28;97186;-70
2021/12/27 09:31:31;;;;;;;;;48.20;38.80;;;;;0.07;46.95;98490.06;6215827;28;96917;-66
2021/12/27 09:34:34;;;;;;;;;50.20;39.00;;;;;-0.01;47.07;98490.91;6215426;28;96354;-68
2021/12/27 09:37:37;;;;;;;;;51.60;38.00;;;;;-0.11;47.33;98490.25;6215664;28;97289;-66
2021/12/27 09:40:41;;;;;;;;;52.60;39.80;;;;;0.00;47.39;98479.28;6214800;28;97556;-69
2021/12/27 09:43:45;;;;;;;;;51.00;40.50;;;;;0.05;47.14;98484.09;6223551;28;97390;-68
2021/12/27 09:46:50;;;;;;;;;52.00;41.00;;;;;0.04;46.94;98485.13;6213750;28;97491;-65
2021/12/27 09:49:53;;;;;;;;;50.75;39.00;;;;;0.09;46.87;98474.84;6215110;28;97145;-68
2021/12/27 09:53:03;;;;;;;;;54.50;41.00;;;;;-0.06;46.85;98479.16;6215724;28;125978;-68
2021/12/27 09:56:10;;;;;;;;;53.40;43.00;;;;;-0.08;47.74;98474.00;6217439;28;96699;-68
2021/12/27 09:59:13;;;;;;;;;52.00;40.20;;;;;-0.32;47.65;98468.69;6214124;28;97639;-68
2021/12/27 10:02:24;;;;;;;;;51.00;39.60;;;;;-0.37;48.09;98468.34;6210662;28;125994;-68
2021/12/27 10:05:31;;;;;;;;;53.60;41.00;;;;;-0.47;48.21;98473.78;6213801;28;125788;-69
2021/12/27 10:08:35;;;;;;;;;60.75;44.00;;;;;-0.42;48.41;98473.28;6229201;27;124393;-67
2021/12/27 10:11:42;;;;;;;;;53.50;42.25;;;;;-0.35;48.35;98476.13;6197057;28;97988;-66
2021/12/27 10:14:45;;;;;;;;;51.00;39.20;;;;;-0.26;48.20;98470.69;6214981;28;96570;-68
2021/12/27 10:17:50;;;;;;;;;53.80;40.40;;;;;-0.44;48.06;98472.66;6215941;28;97062;-68
2021/12/27 10:20:59;;;;;;;;;49.20;38.60;;;;;-0.72;49.20;98473.84;6214185;28;124820;-66
2021/12/27 10:24:05;;;;;;;;;51.80;41.00;;;;;-0.65;49.66;98478.38;6211677;28;96817;-69
2021/12/27 10:27:09;;;;;;;;;56.20;42.40;;;;;-0.50;49.23;98475.94;6209482;28;97706;-67
2021/12/27 10:30:16;;;;;;;;;56.00;44.00;;;;;-0.31;48.71;98466.84;6210645;28;98623;-68
2021/12/27 10:33:24;;;;;;;;;58.20;44.60;;;;;-0.15;48.12;98461.59;6211012;28;97858;-68
2021/12/27 10:36:28;;;;;;;;;52.50;41.00;;;;;-0.16;48.07;98465.22;6214770;28;97203;-68
2021/12/27 10:39:43;;;;;;;;;52.33;41.33;;;;;0.04;48.25;98465.75;6212651;28;97219;-69
2021/12/27 10:42:48;;;;;;;;;57.00;42.50;;;;;0.16;47.63;98459.09;6212684;28;97298;-67
2021/12/27 10:46:00;;;;;;;;;58.40;43.20;;;;;0.35;47.51;98461.41;6204410;28;97092;-67
2021/12/27 10:49:05;;;;;;;;;52.00;41.00;;;;;0.32;47.39;98451.13;6212935;28;96536;-68
2021/12/27 10:52:08;;;;;;;;;55.00;42.00;;;;;0.16;46.97;98446.66;6207991;28;97260;-69
2021/12/27 10:55:11;;;;;;;;;58.00;43.20;;;;;-0.18;47.42;98441.53;6199111;28;97423;-70
2021/12/27 10:58:22;;;;;;;;;55.60;44.00;;;;;-0.33;48.16;98419.34;6192470;28;97421;-67
2021/12/27 11:01:28;;;;;;;;;57.60;44.00;;;;;-0.09;48.11;98429.13;6195910;28;97368;-68
2021/12/27 11:04:33;;;;;;;;;52.40;41.00;;;;;0.02;47.79;98425.31;6219870;27;97077;-67
2021/12/27 11:07:36;;;;;;;;;54.25;43.00;;;;;0.03;47.55;98425.16;6205133;28;99519;-68
2021/12/27 11:10:40;;;;;;;;;58.00;43.40;;;;;0.19;47.80;98422.50;6194928;28;99493;-70
2021/12/27 11:13:47;;;;;;;;;57.00;42.60;;;;;0.32;47.32;98419.31;6190188;28;96848;-68
2021/12/27 11:16:51;;;;;;;;;57.60;43.00;;;;;0.34;47.25;98418.13;6196688;28;96757;-64
2021/12/27 11:19:55;;;;;;;;;57.00;44.00;;;;;-0.14;47.92;98413.72;6194005;28;97265;-66
2021/12/27 11:23:00;;;;;;;;;60.00;45.00;;;;;0.02;47.90;98404.09;6203232;28;97223;-66
2021/12/27 11:26:06;;;;;;;;;56.80;44.00;;;;;0.09;48.11;98405.09;6207287;28;98785;-67
2021/12/27 11:29:11;;;;;;;;;53.60;42.00;;;;;0.19;47.37;98408.41;6211002;28;97159;-65
2021/12/27 11:32:17;;;;;;;;;56.75;43.00;;;;;0.31;47.12;98396.44;6211587;28;97461;-68
2021/12/27 11:35:22;;;;;;;;;57.60;43.00;;;;;0.47;47.31;98388.47;6213400;28;96813;-69
2021/12/27 11:38:30;;;;;;;;;54.00;41.00;;;;;0.51;46.82;98394.25;6211188;28;98141;-66
2021/12/27 11:41:36;;;;;;;;;52.75;41.00;;;;;0.40;46.94;98390.97;6212478;28;96409;-66
2021/12/27 11:44:44;;;;;;;;;57.00;42.00;;;;;0.56;46.41;98381.31;6211879;28;97235;-68
2021/12/27 11:48:07;;;;;;;;;53.00;40.25;;;;;0.64;47.15;98389.22;6193999;28;97839;-69
2021/12/27 11:51:12;;;;;;;;;55.00;42.00;;;;;0.71;46.43;98379.59;6205121;28;96736;-68
2021/12/27 11:54:27;;;;;;;;;52.00;41.00;;;;;0.80;46.32;98375.91;6187117;28;98347;-67
2021/12/27 11:57:56;;;;;;;;;54.60;41.80;;;;;0.96;46.37;98389.13;6200136;28;97559;-68
2021/12/27 12:01:03;;;;;;;;;55.60;40.60;;;;;1.02;46.11;98387.59;6199815;28;96760;-71
2021/12/27 12:04:07;;;;;;;;;52.60;41.40;;;;;1.00;46.21;98384.28;6198768;28;96690;-68
2021/12/27 12:07:32;;;;;;;;;53.75;41.00;;;;;1.06;45.98;98387.06;6193391;28;96813;-68
2021/12/27 12:10:37;;;;;;;;;55.00;41.60;;;;;0.88;45.82;98382.00;6199029;28;97716;-67
2021/12/27 12:13:42;;;;;;;;;52.60;41.40;;;;;1.07;46.03;98375.47;6198395;28;97080;-67
2021/12/27 12:16:47;;;;;;;;;53.60;41.00;;;;;1.15;45.78;98363.97;6194108;28;96625;-65
2021/12/27 12:19:51;;;;;;;;;52.40;41.20;;;;;1.14;46.21;98360.47;6180996;28;96771;-68
2021/12/27 12:23:01;;;;;;;;;50.00;40.00;;;;;1.38;45.72;98363.97;6208336;28;96442;-67
2021/12/27 12:26:06;;;;;;;;;53.40;42.40;;;;;1.28;45.01;98367.69;6197944;28;97453;-67
2021/12/27 12:29:10;;;;;;;;;53.00;42.00;;;;;1.25;45.24;98367.22;6193558;28;99610;-68
2021/12/27 12:32:16;;;;;;;;;55.00;42.00;;;;;1.15;45.77;98367.44;6211447;28;97465;-68
2021/12/27 12:35:32;;;;;;;;;60.25;43.00;;;;;1.17;46.02;98365.44;6201264;28;97378;-67
2021/12/27 12:38:39;;;;;;;;;53.00;42.00;;;;;1.24;45.84;98358.44;6199424;28;97951;-68
2021/12/27 12:41:42;;;;;;;;;55.00;44.00;;;;;1.19;45.84;98339.53;6201179;28;97634;-67
2021/12/27 12:44:48;;;;;;;;;56.80;42.80;;;;;1.18;45.75;98355.63;6194547;28;97528;-70
2021/12/27 12:47:51;;;;;;;;;56.20;41.80;;;;;1.15;45.74;98359.47;6201275;28;96985;-70
2021/12/27 12:50:55;;;;;;;;;56.80;44.60;;;;;1.15;46.09;98362.13;6191350;28;97570;-70
2021/12/27 12:54:00;;;;;;;;;55.40;43.40;;;;;1.26;46.19;98351.13;6190286;28;96826;-69
2021/12/27 12:57:06;;;;;;;;;57.00;43.00;;;;;1.38;45.97;98348.03;6168093;28;98323;-71
2021/12/27 13:00:11;;;;;;;;;61.40;45.00;;;;;1.43;45.20;98349.16;6207406;28;98040;-69
2021/12/27 13:03:15;;;;;;;;;62.00;45.25;;;;;1.40;45.48;98348.69;6196150;28;96921;-71
2021/12/27 13:06:19;;;;;;;;;61.00;46.00;;;;;1.51;45.15;98340.31;6179902;28;97796;-68
2021/12/27 13:09:39;;;;;;;;;61.00;46.00;;;;;1.48;44.70;98335.34;6174136;28;98113;-70
2021/12/27 13:12:42;;;;;;;;;60.80;46.00;;;;;1.37;45.55;98327.81;6191816;28;97327;-67
2021/12/27 13:15:53;;;;;;;;;58.00;45.00;;;;;1.30;45.44;98339.16;6198679;28;98248;-68
2021/12/27 13:18:58;;;;;;;;;55.25;43.75;;;;;1.33;45.32;98342.44;6204169;28;96874;-68
2021/12/27 13:22:03;;;;;;;;;59.25;45.00;;;;;1.28;45.14;98332.34;6207549;28;97446;-66
2021/12/27 13:25:08;;;;;;;;;57.50;45.00;;;;;1.22;45.59;98335.72;6214894;28;97395;-67
2021/12/27 13:28:23;;;;;;;;;56.00;43.00;;;;;1.14;45.72;98330.44;6206236;28;97570;-69
2021/12/27 13:31:27;;;;;;;;;57.20;43.00;;;;;1.04;46.00;98341.28;6206991;28;97079;-66
2021/12/27 13:34:31;;;;;;;;;56.00;44.00;;;;;1.07;45.96;98340.13;6190588;28;97886;-67
2021/12/27 13:37:38;;;;;;;;;58.00;44.20;;;;;1.02;45.94;98335.34;6190433;28;96950;-67
2021/12/27 13:40:47;;;;;;;;;58.00;45.00;;;;;1.10;46.11;98342.41;6240105;27;96994;-69
2021/12/27 13:43:52;;;;;;;;;54.00;44.00;;;;;1.05;45.74;98340.28;6220862;28;97469;-70
2021/12/27 13:46:57;;;;;;;;;57.00;43.60;;;;;1.02;46.00;98334.50;6212059;28;97725;-67
2021/12/27 13:50:02;;;;;;;;;56.40;43.00;;;;;0.90;46.14;98326.09;6185200;28;97129;-69
2021/12/27 13:53:11;;;;;;;;;59.00;44.00;;;;;0.85;46.83;98333.75;6206302;28;97263;-66
2021/12/27 13:56:16;;;;;;;;;58.00;43.00;;;;;0.87;46.39;98337.09;6222979;28;97379;-68
2021/12/27 13:59:22;;;;;;;;;57.80;44.00;;;;;0.84;46.43;98340.06;6202877;28;97318;-66
2021/12/27 14:02:38;;;;;;;;;56.00;43.00;;;;;0.77;46.48;98332.00;6208804;28;97397;-66
2021/12/27 14:05:41;;;;;;;;;59.00;44.60;;;;;0.81;46.30;98335.94;6202548;28;97556;-70
2021/12/27 14:08:56;;;;;;;;;62.60;45.40;;;;;0.83;46.58;98341.88;6213076;28;97038;-66
2021/12/27 14:12:03;;;;;;;;;57.40;44.00;;;;;0.87;46.57;98345.03;6212248;28;97323;-67
2021/12/27 14:15:08;;;;;;;;;62.00;46.00;;;;;0.98;46.41;98336.66;6214040;28;98097;-69